Time;durP1;ratioP1;P1;durP2;ratioP2;P2;SDS_P1;SDS_P2;PMS_P1;PMS_P2;Temp;Humidity;BMP_temperature;BMP_pressure;BME280_temperature;BME280_humidity;BME280_pressure;Samples;Min_cycle;Max_cycle;Signal;HPM_P1;HPM_P2
2023/07/29 00:00:27;;;;;;;9.18;5.32;;;;;;;;;;5073988;28;20362;-80
2023/07/29 00:02:53;;;;;;;8.50;6.05;;;;;;;;;;5075109;28;20036;-79
2023/07/29 00:05:18;;;;;;;7.47;5.10;;;;;;;;;;5074191;28;20025;-80
2023/07/29 00:07:44;;;;;;;6.40;5.15;;;;;;;;;;5075175;28;20051;-80
2023/07/29 00:10:09;;;;;;;11.18;5.45;;;;;;;;;;5075500;28;20051;-80
2023/07/29 00:12:35;;;;;;;8.35;5.32;;;;;;;;;;5074942;28;20103;-80
2023/07/29 00:15:00;;;;;;;8.40;5.07;;;;;;;;;;5073785;28;20025;-80
2023/07/29 00:17:26;;;;;;;10.88;5.70;;;;;;;;;;5074826;28;20028;-80
2023/07/29 00:19:51;;;;;;;5.70;4.75;;;;;;;;;;5057010;28;20035;-79
2023/07/29 00:22:17;;;;;;;8.88;5.20;;;;;;;;;;5074569;28;20111;-79
2023/07/29 00:24:42;;;;;;;6.38;5.22;;;;;;;;;;5074701;28;20024;-79
2023/07/29 00:27:07;;;;;;;9.32;5.03;;;;;;;;;;5074842;28;20036;-79
2023/07/29 00:29:33;;;;;;;6.50;5.30;;;;;;;;;;5074531;28;20047;-79
2023/07/29 00:31:58;;;;;;;7.32;5.18;;;;;;;;;;5072886;28;20413;-79
2023/07/29 00:34:24;;;;;;;6.90;4.93;;;;;;;;;;5074663;28;20342;-80
2023/07/29 00:36:49;;;;;;;8.43;4.82;;;;;;;;;;5074550;28;20028;-80
2023/07/29 00:39:15;;;;;;;10.25;5.32;;;;;;;;;;5074415;28;20032;-80
2023/07/29 00:41:40;;;;;;;7.13;5.05;;;;;;;;;;5074661;28;20031;-80
2023/07/29 00:44:05;;;;;;;6.13;4.65;;;;;;;;;;5073211;28;20032;-80
2023/07/29 00:46:33;;;;;;;6.75;4.72;;;;;;;;;;5074738;28;20075;-80
2023/07/29 00:48:58;;;;;;;7.80;4.88;;;;;;;;;;5056893;28;20040;-78
2023/07/29 00:51:24;;;;;;;6.75;4.90;;;;;;;;;;5074206;28;20461;-80
2023/07/29 00:53:49;;;;;;;7.78;4.93;;;;;;;;;;5074252;28;20024;-80
2023/07/29 00:56:15;;;;;;;9.73;5.07;;;;;;;;;;5074316;28;20126;-80
2023/07/29 00:58:40;;;;;;;5.63;4.70;;;;;;;;;;5073578;28;20036;-80
2023/07/29 01:01:05;;;;;;;7.93;4.60;;;;;;;;;;5074448;28;20031;-80
2023/07/29 01:03:31;;;;;;;5.80;4.30;;;;;;;;;;5074421;28;20051;-80
2023/07/29 01:06:17;;;;;;;6.72;4.60;;;;;;;;;;5074033;28;20373;-80
2023/07/29 01:08:42;;;;;;;5.25;4.20;;;;;;;;;;5072882;28;20044;-80
2023/07/29 01:11:35;;;;;;;6.03;4.47;;;;;;;;;;5074222;28;20358;-80
2023/07/29 01:14:09;;;;;;;8.00;4.80;;;;;;;;;;5073257;28;20475;-80
2023/07/29 01:16:45;;;;;;;6.72;4.18;;;;;;;;;;5056961;28;20101;-80
2023/07/29 01:19:18;;;;;;;5.35;4.47;;;;;;;;;;5073165;28;20142;-80
2023/07/29 01:21:43;;;;;;;5.85;4.30;;;;;;;;;;5056563;28;20052;-80
2023/07/29 01:24:08;;;;;;;4.75;4.03;;;;;;;;;;5056059;28;20121;-81
2023/07/29 01:26:34;;;;;;;7.70;4.15;;;;;;;;;;5074291;28;20147;-81
2023/07/29 01:28:59;;;;;;;6.55;4.35;;;;;;;;;;5073940;28;20027;-81
2023/07/29 01:31:33;;;;;;;4.50;4.10;;;;;;;;;;5074230;28;20374;-80
2023/07/29 01:34:26;;;;;;;4.68;4.10;;;;;;;;;;5073095;28;20032;-81
2023/07/29 01:36:51;;;;;;;8.82;4.15;;;;;;;;;;5072688;28;20028;-80
2023/07/29 01:39:17;;;;;;;4.75;3.80;;;;;;;;;;5056062;28;20052;-80
2023/07/29 01:41:43;;;;;;;9.68;4.30;;;;;;;;;;5073860;28;20492;-80
2023/07/29 01:44:09;;;;;;;7.35;4.10;;;;;;;;;;5059954;28;20078;-80
2023/07/29 01:46:35;;;;;;;6.00;4.03;;;;;;;;;;5076699;28;20024;-81
2023/07/29 01:49:01;;;;;;;4.97;4.18;;;;;;;;;;5043034;28;20309;-81
2023/07/29 01:51:26;;;;;;;5.28;3.78;;;;;;;;;;5076738;28;20027;-80
2023/07/29 01:53:51;;;;;;;7.43;3.70;;;;;;;;;;5076704;28;20020;-80
2023/07/29 01:56:17;;;;;;;5.68;3.80;;;;;;;;;;5077722;28;20016;-81
2023/07/29 01:58:42;;;;;;;7.25;3.53;;;;;;;;;;5077968;28;20024;-80
2023/07/29 02:01:08;;;;;;;5.93;3.60;;;;;;;;;;5077619;28;20025;-81
2023/07/29 02:03:33;;;;;;;4.68;4.00;;;;;;;;;;5076257;28;20028;-81
2023/07/29 02:05:59;;;;;;;4.53;4.00;;;;;;;;;;5077443;28;20024;-80
2023/07/29 02:08:24;;;;;;;4.65;4.03;;;;;;;;;;5077231;28;20041;-80
2023/07/29 02:10:49;;;;;;;8.60;3.67;;;;;;;;;;5077377;28;20033;-80
2023/07/29 02:13:15;;;;;;;7.72;4.18;;;;;;;;;;5077452;28;20123;-81
2023/07/29 02:15:40;;;;;;;9.32;4.35;;;;;;;;;;5076098;28;20115;-82
2023/07/29 02:18:07;;;;;;;7.25;4.10;;;;;;;;;;5077069;28;20035;-81
2023/07/29 02:20:32;;;;;;;4.95;4.00;;;;;;;;;;5077390;28;20025;-81
2023/07/29 02:22:58;;;;;;;8.73;4.03;;;;;;;;;;5077802;28;20025;-81
2023/07/29 02:25:23;;;;;;;4.95;4.05;;;;;;;;;;5077449;28;20074;-81
2023/07/29 02:27:48;;;;;;;4.03;3.65;;;;;;;;;;5077167;28;20027;-81
2023/07/29 02:30:14;;;;;;;4.45;3.97;;;;;;;;;;5077004;28;20362;-81
2023/07/29 02:32:39;;;;;;;5.35;4.30;;;;;;;;;;5076929;28;20028;-80
2023/07/29 02:35:05;;;;;;;8.27;3.72;;;;;;;;;;5077022;28;20067;-81
2023/07/29 02:37:30;;;;;;;5.82;3.80;;;;;;;;;;5077018;28;20357;-81
2023/07/29 02:39:56;;;;;;;5.68;4.03;;;;;;;;;;5077201;28;20063;-81
2023/07/29 02:42:21;;;;;;;6.10;4.07;;;;;;;;;;5076860;28;20451;-81
2023/07/29 02:44:47;;;;;;;5.35;4.00;;;;;;;;;;5076790;28;20066;-82
2023/07/29 02:47:12;;;;;;;4.38;3.67;;;;;;;;;;5076575;28;20032;-81
2023/07/29 02:49:38;;;;;;;4.57;3.83;;;;;;;;;;5076609;28;20032;-81
2023/07/29 02:52:03;;;;;;;6.03;4.10;;;;;;;;;;5076707;28;20029;-81
2023/07/29 02:54:29;;;;;;;7.40;4.50;;;;;;;;;;5075783;28;20028;-81
2023/07/29 02:56:54;;;;;;;7.60;4.57;;;;;;;;;;5076770;28;20434;-81
2023/07/29 02:59:20;;;;;;;5.75;4.47;;;;;;;;;;5076539;28;20029;-81
2023/07/29 03:01:45;;;;;;;5.55;4.15;;;;;;;;;;5075185;28;20033;-81
2023/07/29 03:04:12;;;;;;;5.15;4.00;;;;;;;;;;5076764;28;20093;-81
2023/07/29 03:06:38;;;;;;;7.68;4.60;;;;;;;;;;5077019;28;20419;-81
2023/07/29 03:09:04;;;;;;;7.78;4.57;;;;;;;;;;5074930;28;20052;-81
2023/07/29 03:11:30;;;;;;;5.20;4.63;;;;;;;;;;5076322;28;20082;-81
2023/07/29 03:13:56;;;;;;;5.50;4.43;;;;;;;;;;5076419;28;20029;-81
2023/07/29 03:16:22;;;;;;;4.43;4.03;;;;;;;;;;5076305;28;20434;-81
2023/07/29 03:18:47;;;;;;;6.45;4.22;;;;;;;;;;5076261;28;20024;-80
2023/07/29 03:21:13;;;;;;;5.82;4.13;;;;;;;;;;5075084;28;20029;-81
2023/07/29 03:23:38;;;;;;;8.30;4.15;;;;;;;;;;5076611;28;20106;-79
2023/07/29 03:26:09;;;;;;;4.60;3.85;;;;;;;;;;5076233;28;20043;-79
2023/07/29 03:28:35;;;;;;;6.78;4.20;;;;;;;;;;5075017;28;20025;-79
2023/07/29 03:31:01;;;;;;;5.22;3.83;;;;;;;;;;5094594;28;20036;-78
2023/07/29 03:33:27;;;;;;;7.13;3.80;;;;;;;;;;5079630;28;20047;-79
2023/07/29 03:35:52;;;;;;;6.05;4.00;;;;;;;;;;5097953;28;20032;-80
2023/07/29 03:38:18;;;;;;;4.53;3.78;;;;;;;;;;5097877;28;20025;-80
2023/07/29 03:40:43;;;;;;;4.80;4.20;;;;;;;;;;5090600;28;20052;-79
2023/07/29 03:43:09;;;;;;;5.18;3.80;;;;;;;;;;5074499;28;20041;-80
2023/07/29 03:45:34;;;;;;;5.38;4.20;;;;;;;;;;5075588;28;20115;-79
2023/07/29 03:48:00;;;;;;;7.72;4.45;;;;;;;;;;5075428;28;20407;-79
2023/07/29 03:50:26;;;;;;;7.40;4.93;;;;;;;;;;5075282;28;20032;-78
2023/07/29 03:52:52;;;;;;;7.68;4.82;;;;;;;;;;5074487;28;20036;-79
2023/07/29 03:55:17;;;;;;;9.45;4.68;;;;;;;;;;5075371;28;20060;-79
2023/07/29 03:57:43;;;;;;;7.47;4.65;;;;;;;;;;5075284;28;20031;-79
2023/07/29 04:00:11;;;;;;;5.88;4.30;;;;;;;;;;5075377;28;20052;-79
2023/07/29 04:02:37;;;;;;;8.07;4.85;;;;;;;;;;5075391;28;20026;-80
2023/07/29 04:05:03;;;;;;;8.00;4.13;;;;;;;;;;5075636;28;20035;-80
2023/07/29 04:07:29;;;;;;;5.85;4.22;;;;;;;;;;5074986;28;20383;-79
2023/07/29 04:09:54;;;;;;;6.97;3.78;;;;;;;;;;5073672;28;20123;-79
2023/07/29 04:12:21;;;;;;;9.48;4.10;;;;;;;;;;5075072;28;20028;-79
2023/07/29 04:14:47;;;;;;;7.50;4.57;;;;;;;;;;5073806;28;20033;-79
2023/07/29 04:17:12;;;;;;;5.35;4.40;;;;;;;;;;5074998;28;20086;-80
2023/07/29 04:19:37;;;;;;;6.05;4.63;;;;;;;;;;5073933;28;20020;-79
2023/07/29 04:22:03;;;;;;;7.38;4.50;;;;;;;;;;5074952;28;20338;-80
2023/07/29 04:24:28;;;;;;;5.72;4.13;;;;;;;;;;5074928;28;20025;-80
2023/07/29 04:26:54;;;;;;;5.30;4.13;;;;;;;;;;5073664;28;20124;-80
2023/07/29 04:29:19;;;;;;;13.00;4.20;;;;;;;;;;5074787;28;20453;-79
2023/07/29 04:31:45;;;;;;;8.38;4.32;;;;;;;;;;5074706;28;20345;-80
2023/07/29 04:34:12;;;;;;;5.38;4.28;;;;;;;;;;5075170;28;20078;-80
2023/07/29 04:36:37;;;;;;;4.95;3.97;;;;;;;;;;5074853;28;20488;-79
2023/07/29 04:39:03;;;;;;;8.98;4.20;;;;;;;;;;5073446;28;20032;-79
2023/07/29 04:41:28;;;;;;;4.13;3.72;;;;;;;;;;5074800;28;20044;-79
2023/07/29 04:43:54;;;;;;;4.45;3.67;;;;;;;;;;5072988;28;20361;-78
2023/07/29 04:46:19;;;;;;;7.63;3.72;;;;;;;;;;5074880;28;20039;-79
2023/07/29 04:48:44;;;;;;;4.78;4.00;;;;;;;;;;5074356;28;20028;-79
2023/07/29 04:51:10;;;;;;;7.93;3.70;;;;;;;;;;5074526;28;20075;-80
2023/07/29 04:53:36;;;;;;;4.95;3.88;;;;;;;;;;5074523;28;20027;-81
2023/07/29 04:56:02;;;;;;;4.57;4.05;;;;;;;;;;5074480;28;20021;-80
2023/07/29 04:58:29;;;;;;;5.43;4.43;;;;;;;;;;5073245;28;20036;-80
2023/07/29 05:00:57;;;;;;;6.57;3.75;;;;;;;;;;5074662;28;20032;-80
2023/07/29 05:03:23;;;;;;;6.30;4.50;;;;;;;;;;5074703;28;20033;-81
2023/07/29 05:05:48;;;;;;;7.05;3.80;;;;;;;;;;5073472;28;20158;-80
2023/07/29 05:08:14;;;;;;;9.07;4.45;;;;;;;;;;5074302;28;20048;-80
2023/07/29 05:10:39;;;;;;;13.38;4.40;;;;;;;;;;5074578;28;20091;-81
2023/07/29 05:13:05;;;;;;;7.75;4.20;;;;;;;;;;5073971;28;20446;-81
2023/07/29 05:15:30;;;;;;;6.82;4.30;;;;;;;;;;5074397;28;20504;-80
2023/07/29 05:17:56;;;;;;;6.43;4.22;;;;;;;;;;5073880;28;20058;-80
2023/07/29 05:20:21;;;;;;;6.13;3.90;;;;;;;;;;5074117;28;20365;-81
2023/07/29 05:22:47;;;;;;;5.50;4.15;;;;;;;;;;5074429;28;20028;-80
2023/07/29 05:25:12;;;;;;;5.57;3.70;;;;;;;;;;5074158;28;20152;-80
2023/07/29 05:27:37;;;;;;;8.52;4.35;;;;;;;;;;5073981;28;20021;-80
2023/07/29 05:30:03;;;;;;;6.55;4.32;;;;;;;;;;5074062;28;20056;-80
2023/07/29 05:32:29;;;;;;;5.93;4.00;;;;;;;;;;5074451;28;20025;-80
2023/07/29 05:34:55;;;;;;;5.82;3.95;;;;;;;;;;5074114;28;20342;-81
2023/07/29 05:37:20;;;;;;;4.78;3.80;;;;;;;;;;5074062;28;20021;-81
2023/07/29 05:39:45;;;;;;;8.90;3.65;;;;;;;;;;5074003;28;20050;-80
2023/07/29 05:42:11;;;;;;;6.10;3.58;;;;;;;;;;5073645;28;20028;-81
2023/07/29 05:44:36;;;;;;;4.88;3.60;;;;;;;;;;5074047;28;20050;-81
2023/07/29 05:47:02;;;;;;;6.93;3.70;;;;;;;;;;5074086;28;20021;-81
2023/07/29 05:49:28;;;;;;;4.90;3.58;;;;;;;;;;5074125;28;20037;-81
2023/07/29 05:51:54;;;;;;;6.03;3.70;;;;;;;;;;5074035;28;20058;-80
2023/07/29 05:54:19;;;;;;;5.60;3.75;;;;;;;;;;5072865;28;20107;-81
2023/07/29 05:56:44;;;;;;;5.53;3.95;;;;;;;;;;5055618;28;20028;-81
2023/07/29 05:59:10;;;;;;;10.27;4.20;;;;;;;;;;5072898;28;20059;-81
2023/07/29 06:01:36;;;;;;;9.65;4.25;;;;;;;;;;5073780;28;20024;-81
2023/07/29 06:04:01;;;;;;;10.73;4.32;;;;;;;;;;5073847;28;20032;-81
2023/07/29 06:06:27;;;;;;;8.57;3.95;;;;;;;;;;5072801;28;20429;-81
2023/07/29 06:08:52;;;;;;;6.45;4.45;;;;;;;;;;5072777;28;20041;-79
2023/07/29 06:11:17;;;;;;;5.68;3.53;;;;;;;;;;5073585;28;20025;-81
2023/07/29 06:13:43;;;;;;;5.47;3.88;;;;;;;;;;5073776;28;20029;-81
2023/07/29 06:16:08;;;;;;;6.25;3.90;;;;;;;;;;5073642;28;20530;-81
2023/07/29 06:18:34;;;;;;;6.45;4.20;;;;;;;;;;5073975;28;20020;-79
2023/07/29 06:20:59;;;;;;;6.18;3.85;;;;;;;;;;5073651;28;20028;-80
2023/07/29 06:23:25;;;;;;;10.93;4.40;;;;;;;;;;5072523;28;20338;-79
2023/07/29 06:25:50;;;;;;;5.75;3.58;;;;;;;;;;5073496;28;20107;-79
2023/07/29 06:28:15;;;;;;;10.20;4.18;;;;;;;;;;5074174;28;20453;-80
2023/07/29 06:30:41;;;;;;;7.72;4.35;;;;;;;;;;5077065;28;20032;-81
2023/07/29 06:33:06;;;;;;;5.95;4.03;;;;;;;;;;5075985;28;20074;-81
2023/07/29 06:35:32;;;;;;;8.38;3.90;;;;;;;;;;5077524;28;20020;-80
2023/07/29 06:37:57;;;;;;;5.90;3.90;;;;;;;;;;5076025;28;20029;-80
2023/07/29 06:40:22;;;;;;;6.25;3.97;;;;;;;;;;5077140;28;20074;-80
2023/07/29 06:42:48;;;;;;;10.90;4.57;;;;;;;;;;5076054;28;20040;-81
2023/07/29 06:45:15;;;;;;;8.43;4.10;;;;;;;;;;5076962;28;20053;-80
2023/07/29 06:47:40;;;;;;;6.75;4.18;;;;;;;;;;5076951;28;20013;-81
2023/07/29 06:50:07;;;;;;;9.50;4.30;;;;;;;;;;5075877;28;20039;-81
2023/07/29 06:52:32;;;;;;;9.10;4.13;;;;;;;;;;5076912;28;20028;-81
2023/07/29 06:54:58;;;;;;;5.53;4.13;;;;;;;;;;5076737;28;20039;-80
2023/07/29 06:57:23;;;;;;;6.20;3.80;;;;;;;;;;5077163;28;20044;-80
2023/07/29 06:59:49;;;;;;;8.77;4.20;;;;;;;;;;5058854;28;20029;-81
2023/07/29 07:02:14;;;;;;;6.38;4.40;;;;;;;;;;5076878;28;20365;-81
2023/07/29 07:04:39;;;;;;;6.45;4.00;;;;;;;;;;5076889;28;20033;-81
2023/07/29 07:07:05;;;;;;;4.40;4.00;;;;;;;;;;5076179;28;20047;-81
2023/07/29 07:09:30;;;;;;;9.48;4.25;;;;;;;;;;5075960;28;20051;-81
2023/07/29 07:11:56;;;;;;;15.80;4.80;;;;;;;;;;5076580;28;20457;-80
2023/07/29 07:14:21;;;;;;;4.63;3.90;;;;;;;;;;5076695;28;20088;-81
2023/07/29 07:16:46;;;;;;;9.90;4.38;;;;;;;;;;5076825;28;20115;-81
2023/07/29 07:19:12;;;;;;;8.23;4.80;;;;;;;;;;5075328;28;20028;-81
2023/07/29 07:21:37;;;;;;;6.43;4.38;;;;;;;;;;5076789;28;20036;-81
2023/07/29 07:24:03;;;;;;;6.43;4.65;;;;;;;;;;5075037;28;20095;-81
2023/07/29 07:26:28;;;;;;;7.72;4.75;;;;;;;;;;5076585;28;20048;-81
2023/07/29 07:28:54;;;;;;;7.53;4.53;;;;;;;;;;5076230;28;20028;-81
2023/07/29 07:31:19;;;;;;;9.50;4.90;;;;;;;;;;5076017;28;20036;-80
2023/07/29 07:33:44;;;;;;;8.15;4.60;;;;;;;;;;5076229;28;20028;-81
2023/07/29 07:36:10;;;;;;;7.45;4.97;;;;;;;;;;5075124;28;20024;-81
2023/07/29 07:38:35;;;;;;;8.15;5.10;;;;;;;;;;5074468;28;20090;-81
2023/07/29 07:41:01;;;;;;;8.65;5.15;;;;;;;;;;5074522;28;20514;-81
2023/07/29 07:43:26;;;;;;;9.95;5.13;;;;;;;;;;5075998;28;20470;-80
2023/07/29 07:45:57;;;;;;;12.00;5.22;;;;;;;;;;5076514;28;20357;-81
2023/07/29 07:48:23;;;;;;;7.63;5.28;;;;;;;;;;5075806;28;20039;-81
2023/07/29 07:50:48;;;;;;;12.35;5.43;;;;;;;;;;5076317;28;20036;-81
2023/07/29 07:53:14;;;;;;;8.00;5.35;;;;;;;;;;5075491;28;20098;-81
2023/07/29 07:55:39;;;;;;;12.25;5.30;;;;;;;;;;5076065;28;20056;-81
2023/07/29 07:58:05;;;;;;;10.15;5.18;;;;;;;;;;5075857;28;20041;-81
2023/07/29 08:00:30;;;;;;;8.73;5.03;;;;;;;;;;5074499;28;20029;-81
2023/07/29 08:02:55;;;;;;;10.40;4.95;;;;;;;;;;5075768;28;20025;-81
2023/07/29 08:05:21;;;;;;;6.53;5.15;;;;;;;;;;5075508;28;20024;-81
2023/07/29 08:07:46;;;;;;;11.18;4.97;;;;;;;;;;5075022;28;20041;-80
2023/07/29 08:10:12;;;;;;;12.05;5.65;;;;;;;;;;5075324;28;20373;-81
2023/07/29 08:12:37;;;;;;;9.63;5.18;;;;;;;;;;5074217;28;20040;-81
2023/07/29 08:15:03;;;;;;;7.97;5.22;;;;;;;;;;5074295;28;20028;-81
2023/07/29 08:17:28;;;;;;;12.13;5.18;;;;;;;;;;5075646;28;20039;-81
2023/07/29 08:19:54;;;;;;;13.90;5.20;;;;;;;;;;5075194;28;20390;-81
2023/07/29 08:22:20;;;;;;;10.50;5.03;;;;;;;;;;5075308;28;20039;-81
2023/07/29 08:24:45;;;;;;;7.53;5.30;;;;;;;;;;5075392;28;20031;-83
2023/07/29 08:27:11;;;;;;;7.82;4.85;;;;;;;;;;5075402;28;20119;-80
2023/07/29 08:29:36;;;;;;;9.50;5.25;;;;;;;;;;5074994;28;20033;-81
2023/07/29 08:32:02;;;;;;;9.45;5.25;;;;;;;;;;5073975;28;20381;-81
2023/07/29 08:34:27;;;;;;;11.77;4.80;;;;;;;;;;5075047;28;20029;-80
2023/07/29 08:36:53;;;;;;;8.10;5.15;;;;;;;;;;5074726;28;20035;-80
2023/07/29 08:39:19;;;;;;;8.98;5.30;;;;;;;;;;5075006;28;20032;-80
2023/07/29 08:42:08;;;;;;;8.40;5.20;;;;;;;;;;5075070;28;20056;-81
2023/07/29 08:44:43;;;;;;;6.55;4.97;;;;;;;;;;5073912;28;20093;-80
2023/07/29 08:47:09;;;;;;;6.20;4.68;;;;;;;;;;5057163;28;20437;-80
2023/07/29 08:49:35;;;;;;;6.95;4.10;;;;;;;;;;5073085;28;20086;-80
2023/07/29 08:52:01;;;;;;;4.78;4.05;;;;;;;;;;5056366;28;20425;-80
2023/07/29 08:54:26;;;;;;;8.55;3.85;;;;;;;;;;5072949;28;20071;-80
2023/07/29 08:56:51;;;;;;;5.20;4.30;;;;;;;;;;5075258;28;20035;-80
2023/07/29 08:59:17;;;;;;;8.75;4.65;;;;;;;;;;5056626;28;20392;-80
2023/07/29 09:01:43;;;;;;;4.18;3.78;;;;;;;;;;5056911;28;20376;-80
2023/07/29 09:04:08;;;;;;;5.55;3.80;;;;;;;;;;5072925;28;20025;-80
2023/07/29 09:06:35;;;;;;;5.68;3.80;;;;;;;;;;5073425;28;20025;-80
2023/07/29 09:09:00;;;;;;;5.90;3.90;;;;;;;;;;5074753;28;20127;-80
2023/07/29 09:11:27;;;;;;;9.45;4.00;;;;;;;;;;5073784;28;20052;-80
2023/07/29 09:13:53;;;;;;;9.75;4.03;;;;;;;;;;5074787;28;20038;-81
2023/07/29 09:16:19;;;;;;;5.25;3.47;;;;;;;;;;5074833;28;20056;-80
2023/07/29 09:18:47;;;;;;;5.10;3.70;;;;;;;;;;5073119;28;20446;-80
2023/07/29 09:21:12;;;;;;;7.25;3.53;;;;;;;;;;5056901;28;20476;-80
2023/07/29 09:23:40;;;;;;;8.30;3.25;;;;;;;;;;5073312;28;20024;-81
2023/07/29 09:26:06;;;;;;;4.63;3.17;;;;;;;;;;5074404;28;20033;-80
2023/07/29 09:28:35;;;;;;;5.22;3.10;;;;;;;;;;5075487;28;20028;-80
2023/07/29 09:31:00;;;;;;;5.63;3.17;;;;;;;;;;5077070;28;20123;-81
2023/07/29 09:33:26;;;;;;;4.53;3.40;;;;;;;;;;5077635;28;20066;-81
2023/07/29 09:35:52;;;;;;;3.50;3.20;;;;;;;;;;5076644;28;20036;-81
2023/07/29 09:38:17;;;;;;;5.85;3.65;;;;;;;;;;5079352;28;20025;-81
2023/07/29 09:40:45;;;;;;;6.22;3.80;;;;;;;;;;5075370;28;20465;-81
2023/07/29 09:43:10;;;;;;;5.40;3.80;;;;;;;;;;5074064;28;20364;-81
2023/07/29 09:45:36;;;;;;;4.68;3.92;;;;;;;;;;5074014;28;20115;-81
2023/07/29 09:48:02;;;;;;;6.10;4.05;;;;;;;;;;5073719;28;20035;-81
2023/07/29 09:50:28;;;;;;;9.52;4.00;;;;;;;;;;5073856;28;20028;-80
2023/07/29 09:52:54;;;;;;;4.50;3.92;;;;;;;;;;5073792;28;20528;-81
2023/07/29 09:55:23;;;;;;;9.02;4.13;;;;;;;;;;5073145;28;20037;-81
2023/07/29 09:57:53;;;;;;;17.77;4.07;;;;;;;;;;5073086;28;20029;-80
2023/07/29 10:00:19;;;;;;;9.85;4.22;;;;;;;;;;5072647;28;20507;-80
2023/07/29 10:02:44;;;;;;;5.28;4.25;;;;;;;;;;5073825;28;20033;-80
2023/07/29 10:05:10;;;;;;;7.35;4.32;;;;;;;;;;5076398;28;20086;-80
2023/07/29 10:07:39;;;;;;;7.80;4.57;;;;;;;;;;5059593;28;20028;-80
2023/07/29 10:10:04;;;;;;;;;;;;;;;;;;5060099;28;20040;-80
2023/07/29 10:12:34;;;;;;;8.00;4.28;;;;;;;;;;5076497;28;19912;-80
2023/07/29 10:15:08;;;;;;;6.38;4.30;;;;;;;;;;5076617;28;20016;-80
2023/07/29 10:17:35;;;;;;;6.43;3.45;;;;;;;;;;5077182;28;20035;-81
2023/07/29 10:20:01;;;;;;;7.13;4.03;;;;;;;;;;5059724;28;20029;-80
2023/07/29 10:22:33;;;;;;;6.20;3.60;;;;;;;;;;5077585;28;20089;-80
2023/07/29 10:25:04;;;;;;;10.15;3.97;;;;;;;;;;5076299;28;20036;-80
2023/07/29 10:27:29;;;;;;;4.00;3.60;;;;;;;;;;5076025;28;20021;-81
2023/07/29 10:29:55;;;;;;;5.65;3.80;;;;;;;;;;5077349;28;20358;-81
2023/07/29 10:32:23;;;;;;;4.20;3.42;;;;;;;;;;5076943;28;20031;-81
2023/07/29 10:34:49;;;;;;;6.32;3.50;;;;;;;;;;5059404;28;20473;-81
2023/07/29 10:37:14;;;;;;;7.15;3.65;;;;;;;;;;5076838;28;20029;-81
2023/07/29 10:39:40;;;;;;;6.05;4.05;;;;;;;;;;5058976;28;20036;-81
2023/07/29 10:42:06;;;;;;;6.20;4.18;;;;;;;;;;5077006;28;20432;-81
2023/07/29 10:44:43;;;;;;;6.30;4.05;;;;;;;;;;5076964;28;20064;-81
2023/07/29 10:47:15;;;;;;;6.10;3.58;;;;;;;;;;5076755;28;20024;-81
2023/07/29 10:49:41;;;;;;;7.53;4.00;;;;;;;;;;5077060;28;20373;-81
2023/07/29 10:52:07;;;;;;;11.70;4.47;;;;;;;;;;5076602;28;20032;-81
2023/07/29 10:54:42;;;;;;;4.38;3.95;;;;;;;;;;5076440;28;20028;-81
2023/07/29 10:57:07;;;;;;;5.30;3.85;;;;;;;;;;5075268;28;20024;-80
2023/07/29 10:59:36;;;;;;;11.98;4.32;;;;;;;;;;5059106;28;20112;-81
2023/07/29 11:02:01;;;;;;;6.97;4.20;;;;;;;;;;5076087;28;20507;-80
2023/07/29 11:04:29;;;;;;;6.22;4.20;;;;;;;;;;5076492;28;20024;-80
2023/07/29 11:07:03;;;;;;;6.28;3.97;;;;;;;;;;5076553;28;20082;-80
2023/07/29 11:09:51;;;;;;;6.93;4.80;;;;;;;;;;5075841;28;20063;-81
2023/07/29 11:12:36;;;;;;;9.80;3.70;;;;;;;;;;5075044;28;20029;-80
2023/07/29 11:15:10;;;;;;;6.28;4.18;;;;;;;;;;5075126;28;20346;-80
2023/07/29 11:17:38;;;;;;;6.05;4.00;;;;;;;;;;5076057;28;20111;-81
2023/07/29 11:20:03;;;;;;;8.40;3.92;;;;;;;;;;5076552;28;20390;-80
2023/07/29 11:22:29;;;;;;;6.18;4.10;;;;;;;;;;5075836;28;20103;-81
2023/07/29 11:24:55;;;;;;;19.23;5.18;;;;;;;;;;5075017;28;20032;-80
2023/07/29 11:27:20;;;;;;;8.10;3.97;;;;;;;;;;5075829;28;20020;-81
2023/07/29 11:29:48;;;;;;;5.63;3.90;;;;;;;;;;5075560;28;20056;-81
2023/07/29 11:32:13;;;;;;;7.97;4.53;;;;;;;;;;5076119;28;20025;-80
2023/07/29 11:34:41;;;;;;;4.72;4.15;;;;;;;;;;5074782;28;20024;-81
2023/07/29 11:37:10;;;;;;;12.18;4.70;;;;;;;;;;5075948;28;20090;-81
2023/07/29 11:39:41;;;;;;;6.35;4.10;;;;;;;;;;5075622;28;20434;-81
2023/07/29 11:42:07;;;;;;;6.80;3.95;;;;;;;;;;5075687;28;20035;-80
2023/07/29 11:44:32;;;;;;;7.20;4.35;;;;;;;;;;5074106;28;20033;-80
2023/07/29 11:46:58;;;;;;;7.32;3.97;;;;;;;;;;5075449;28;20078;-80
2023/07/29 11:49:23;;;;;;;6.60;3.65;;;;;;;;;;5058072;28;20090;-81
2023/07/29 11:51:49;;;;;;;6.05;3.15;;;;;;;;;;5075384;28;20033;-81
2023/07/29 11:54:14;;;;;;;4.63;3.08;;;;;;;;;;5057413;28;20085;-80
2023/07/29 11:56:40;;;;;;;7.90;3.17;;;;;;;;;;5074113;28;20024;-80
2023/07/29 11:59:05;;;;;;;7.20;3.20;;;;;;;;;;5057415;28;20029;-80
2023/07/29 12:01:30;;;;;;;8.65;3.60;;;;;;;;;;5057233;28;20041;-81
2023/07/29 12:03:56;;;;;;;9.13;3.28;;;;;;;;;;5074229;28;20035;-81
2023/07/29 12:06:23;;;;;;;5.85;3.95;;;;;;;;;;5073870;28;20039;-80
2023/07/29 12:08:48;;;;;;;5.85;2.97;;;;;;;;;;5073714;28;20051;-80
2023/07/29 12:11:14;;;;;;;4.18;3.33;;;;;;;;;;5073707;28;20032;-81
2023/07/29 12:13:41;;;;;;;10.32;3.53;;;;;;;;;;5075042;28;20024;-80
2023/07/29 12:16:07;;;;;;;4.55;2.85;;;;;;;;;;5074912;28;20029;-80
2023/07/29 12:18:32;;;;;;;4.38;3.20;;;;;;;;;;5075163;28;20426;-80
2023/07/29 12:20:58;;;;;;;5.75;3.35;;;;;;;;;;5074787;28;20090;-80
2023/07/29 12:23:26;;;;;;;3.60;2.90;;;;;;;;;;5057376;28;20032;-81
2023/07/29 12:26:01;;;;;;;3.55;3.00;;;;;;;;;;5056111;28;20031;-81
2023/07/29 12:28:26;;;;;;;8.10;2.90;;;;;;;;;;5074391;28;20028;-80
2023/07/29 12:30:55;;;;;;;4.75;3.17;;;;;;;;;;5075054;28;20098;-81
2023/07/29 12:33:34;;;;;;;4.18;3.08;;;;;;;;;;5074619;28;20031;-81
2023/07/29 12:36:00;;;;;;;4.63;3.10;;;;;;;;;;5074757;28;20107;-80
2023/07/29 12:38:29;;;;;;;3.75;2.90;;;;;;;;;;5074419;28;20103;-80
2023/07/29 12:40:54;;;;;;;3.75;2.67;;;;;;;;;;5074371;28;20518;-80
2023/07/29 12:43:20;;;;;;;5.38;3.00;;;;;;;;;;5074106;28;20021;-80
2023/07/29 12:45:45;;;;;;;6.15;3.13;;;;;;;;;;5074577;28;20528;-80
2023/07/29 12:48:11;;;;;;;4.80;2.92;;;;;;;;;;5074557;28;20025;-80
2023/07/29 12:50:37;;;;;;;3.58;2.58;;;;;;;;;;5073312;28;20066;-81
2023/07/29 12:53:04;;;;;;;4.15;2.70;;;;;;;;;;5073264;28;20032;-81
2023/07/29 12:55:30;;;;;;;4.32;2.50;;;;;;;;;;5072940;28;20035;-81
2023/07/29 12:57:55;;;;;;;3.08;2.45;;;;;;;;;;5074015;28;20020;-81
2023/07/29 13:00:21;;;;;;;4.75;2.92;;;;;;;;;;5074144;28;20457;-80
2023/07/29 13:02:47;;;;;;;4.55;2.75;;;;;;;;;;5074114;28;20057;-80
2023/07/29 13:05:12;;;;;;;4.43;2.50;;;;;;;;;;5074383;28;20568;-80
2023/07/29 13:07:41;;;;;;;3.10;2.70;;;;;;;;;;5073917;28;20453;-80
2023/07/29 13:10:08;;;;;;;5.10;2.85;;;;;;;;;;5074117;28;20035;-80
2023/07/29 13:12:33;;;;;;;4.15;3.00;;;;;;;;;;5073948;28;20031;-80
2023/07/29 13:14:59;;;;;;;4.38;3.15;;;;;;;;;;5074279;28;20036;-79
2023/07/29 13:17:24;;;;;;;5.35;3.20;;;;;;;;;;5074381;28;20021;-80
2023/07/29 13:19:50;;;;;;;4.13;3.17;;;;;;;;;;5074212;28;20031;-80
2023/07/29 13:22:15;;;;;;;3.90;3.05;;;;;;;;;;5078658;28;20027;-79
2023/07/29 13:24:41;;;;;;;4.47;3.30;;;;;;;;;;5085219;28;20031;-79
2023/07/29 13:27:06;;;;;;;5.60;3.00;;;;;;;;;;5082079;28;20096;-79
2023/07/29 13:29:32;;;;;;;5.40;3.10;;;;;;;;;;5084732;28;20476;-79
2023/07/29 13:31:57;;;;;;;3.70;3.17;;;;;;;;;;5082480;28;20024;-79
2023/07/29 13:34:22;;;;;;;5.20;3.05;;;;;;;;;;5073897;28;20074;-79
2023/07/29 13:36:48;;;;;;;5.03;3.20;;;;;;;;;;5073807;28;20036;-80
2023/07/29 13:39:13;;;;;;;7.05;3.40;;;;;;;;;;5077382;28;20035;-80
2023/07/29 13:41:39;;;;;;;5.28;3.38;;;;;;;;;;5077877;28;20089;-80
2023/07/29 13:44:04;;;;;;;4.10;3.30;;;;;;;;;;5076641;28;20411;-80
2023/07/29 13:46:29;;;;;;;6.38;3.30;;;;;;;;;;5077810;28;20028;-80
2023/07/29 13:48:55;;;;;;;5.65;3.70;;;;;;;;;;5076590;28;20062;-79
2023/07/29 13:51:20;;;;;;;7.75;3.20;;;;;;;;;;5077914;28;20033;-80
2023/07/29 13:53:46;;;;;;;3.33;3.00;;;;;;;;;;5077694;28;20419;-80
2023/07/29 13:56:11;;;;;;;4.30;3.10;;;;;;;;;;5077833;28;20111;-79
2023/07/29 13:58:37;;;;;;;4.40;3.20;;;;;;;;;;5076862;28;20472;-80
2023/07/29 14:01:02;;;;;;;3.65;3.20;;;;;;;;;;5077538;28;20362;-80
2023/07/29 14:03:27;;;;;;;6.05;3.08;;;;;;;;;;5077593;28;20119;-80
2023/07/29 14:05:53;;;;;;;5.63;3.45;;;;;;;;;;5077370;28;20123;-79
2023/07/29 14:08:19;;;;;;;7.85;3.20;;;;;;;;;;5077141;28;20103;-80
2023/07/29 14:10:46;;;;;;;5.93;3.42;;;;;;;;;;5076138;28;20028;-80
2023/07/29 14:13:11;;;;;;;4.35;3.55;;;;;;;;;;5077255;28;20032;-80
2023/07/29 14:15:37;;;;;;;4.45;2.92;;;;;;;;;;5077275;28;20115;-80
2023/07/29 14:18:02;;;;;;;5.07;3.33;;;;;;;;;;5077346;28;20029;-80
2023/07/29 14:20:28;;;;;;;4.15;2.75;;;;;;;;;;5077141;28;20028;-80
2023/07/29 14:22:53;;;;;;;4.78;3.47;;;;;;;;;;5076801;28;20025;-80
2023/07/29 14:25:19;;;;;;;6.82;3.15;;;;;;;;;;5077035;28;20034;-80
2023/07/29 14:27:44;;;;;;;5.75;3.03;;;;;;;;;;5076005;28;20025;-80
2023/07/29 14:30:10;;;;;;;5.50;3.00;;;;;;;;;;5076852;28;20119;-80
2023/07/29 14:32:37;;;;;;;4.57;3.22;;;;;;;;;;5077160;28;20024;-80
2023/07/29 14:35:03;;;;;;;5.25;3.10;;;;;;;;;;5075970;28;20032;-80
2023/07/29 14:37:30;;;;;;;5.70;2.90;;;;;;;;;;5076593;28;20039;-80